createdAt,value
2022-11-25T00:01:26.386Z,3.43
2022-11-25T00:03:56.521Z,3.74
2022-11-25T00:06:25.933Z,2.79
2022-11-25T00:08:56.465Z,2.69
2022-11-25T00:11:24.610Z,2.56
2022-11-25T00:13:52.989Z,2.46
2022-11-25T00:16:21.883Z,2.61
2022-11-25T00:18:50.792Z,2.29
2022-11-25T00:21:20.897Z,2.23
2022-11-25T00:23:51.650Z,2.04
2022-11-25T00:26:20.097Z,2.01
2022-11-25T00:28:48.796Z,2.30
2022-11-25T00:31:17.909Z,2.17
2022-11-25T00:33:46.713Z,2.04
2022-11-25T00:36:16.486Z,2.37
2022-11-25T00:38:46.314Z,2.10
2022-11-25T00:41:32.525Z,2.26
2022-11-25T00:44:18.198Z,2.30
2022-11-25T00:46:46.198Z,2.53
2022-11-25T00:49:14.319Z,2.83
2022-11-25T00:51:44.975Z,2.81
2022-11-25T00:54:14.980Z,2.25
2022-11-25T00:56:45.611Z,2.02
2022-11-25T00:59:14.175Z,1.84
2022-11-25T01:01:42.616Z,2.11
2022-11-25T01:04:11.327Z,1.95
2022-11-25T01:06:42.029Z,2.08
2022-11-25T01:09:12.614Z,2.20
2022-11-25T01:11:44.818Z,2.65
2022-11-25T01:14:13.182Z,2.63
2022-11-25T01:16:41.742Z,2.61
2022-11-25T01:19:11.522Z,3.14
2022-11-25T01:21:41.141Z,3.88
2022-11-25T01:24:14.301Z,3.47
2022-11-25T01:26:45.027Z,3.11
2022-11-25T01:29:16.036Z,2.76
2022-11-25T01:31:45.615Z,2.58
2022-11-25T01:34:16.601Z,2.48
2022-11-25T01:36:45.277Z,2.63
2022-11-25T01:39:18.243Z,2.75
2022-11-25T01:41:48.926Z,2.82
2022-11-25T01:44:20.016Z,2.70
2022-11-25T01:46:54.122Z,2.46
2022-11-25T01:49:30.062Z,2.45
2022-11-25T01:52:03.879Z,2.35
2022-11-25T01:54:36.757Z,2.50
2022-11-25T01:57:10.659Z,2.52
2022-11-25T01:59:44.721Z,2.42
2022-11-25T02:02:13.583Z,2.51
2022-11-25T02:04:44.562Z,2.56
2022-11-25T02:07:17.143Z,2.58
2022-11-25T02:09:46.945Z,2.70
2022-11-25T02:12:21.620Z,2.78
2022-11-25T02:14:51.839Z,2.96
2022-11-25T02:17:21.482Z,2.90
2022-11-25T02:20:00.423Z,2.92
2022-11-25T02:22:40.879Z,2.97
2022-11-25T02:25:18.869Z,2.89
2022-11-25T02:27:51.794Z,2.72
2022-11-25T02:30:20.431Z,2.69
2022-11-25T02:32:50.255Z,2.67
2022-11-25T02:35:28.261Z,2.63
2022-11-25T02:38:00.910Z,2.54
2022-11-25T02:40:31.592Z,2.61
2022-11-25T02:43:01.717Z,2.53
2022-11-25T02:45:40.594Z,2.56
2022-11-25T02:48:08.967Z,2.52
2022-11-25T02:50:37.389Z,2.42
2022-11-25T02:53:05.840Z,2.47
2022-11-25T02:55:35.665Z,2.50
2022-11-25T02:58:04.194Z,2.47
2022-11-25T03:00:32.426Z,2.40
2022-11-25T03:03:00.414Z,2.66
2022-11-25T03:05:28.504Z,2.75
2022-11-25T03:07:56.529Z,2.44
2022-11-25T03:10:26.276Z,2.53
2022-11-25T03:12:56.119Z,2.41
2022-11-25T03:15:24.836Z,2.56
2022-11-25T03:17:53.011Z,2.51
2022-11-25T03:20:21.136Z,2.66
2022-11-25T03:22:49.452Z,3.46
2022-11-25T03:25:18.271Z,3.05
2022-11-25T03:27:46.447Z,3.38
2022-11-25T03:30:20.250Z,3.18
2022-11-25T03:32:51.190Z,3.06
2022-11-25T03:35:19.407Z,2.94
2022-11-25T03:37:47.667Z,2.89
2022-11-25T03:40:16.722Z,2.51
2022-11-25T03:42:45.922Z,2.55
2022-11-25T03:45:15.296Z,2.76
2022-11-25T03:47:46.629Z,2.45
2022-11-25T03:50:16.244Z,2.44
2022-11-25T03:52:46.122Z,2.35
2022-11-25T03:55:14.780Z,2.19
2022-11-25T03:57:46.051Z,2.00
2022-11-25T04:00:14.765Z,2.06
2022-11-25T04:02:50.051Z,2.25
2022-11-25T04:05:21.606Z,2.25
2022-11-25T04:07:54.904Z,2.26
2022-11-25T04:10:28.322Z,2.24
2022-11-25T04:12:55.443Z,2.25
2022-11-25T04:15:29.703Z,2.21
2022-11-25T04:18:00.982Z,2.19
2022-11-25T04:20:29.112Z,2.42
2022-11-25T04:23:03.406Z,2.49
2022-11-25T04:25:32.776Z,2.67
2022-11-25T04:28:01.650Z,3.65
2022-11-25T04:30:33.969Z,3.73
2022-11-25T04:33:04.146Z,2.73
2022-11-25T04:35:32.420Z,2.80
2022-11-25T04:38:00.553Z,2.77
2022-11-25T04:40:30.047Z,2.84
2022-11-25T04:43:13.829Z,2.79
2022-11-25T04:46:13.080Z,2.86
2022-11-25T04:48:39.004Z,2.39
2022-11-25T04:51:07.545Z,2.30
2022-11-25T04:53:35.610Z,2.34
2022-11-25T04:56:03.639Z,2.30
2022-11-25T04:58:54.611Z,2.13
2022-11-25T05:01:22.930Z,2.02
2022-11-25T05:03:57.776Z,2.04
2022-11-25T05:06:27.729Z,2.05
2022-11-25T05:08:56.039Z,2.00
2022-11-25T05:11:26.391Z,2.10
2022-11-25T05:13:54.591Z,2.23
2022-11-25T05:16:22.655Z,2.49
2022-11-25T05:18:50.878Z,2.69
2022-11-25T05:21:23.824Z,3.18
2022-11-25T05:23:55.782Z,3.08
2022-11-25T05:26:25.025Z,2.96
2022-11-25T05:28:55.370Z,2.51
2022-11-25T05:31:23.616Z,2.63
2022-11-25T05:33:51.966Z,2.54
2022-11-25T05:36:20.336Z,2.56
2022-11-25T05:38:50.535Z,2.62
2022-11-25T05:41:27.577Z,2.57
2022-11-25T05:43:55.697Z,2.46
2022-11-25T05:46:24.176Z,2.41
2022-11-25T05:48:56.028Z,2.54
2022-11-25T05:51:28.204Z,2.41
2022-11-25T05:53:58.677Z,2.64
2022-11-25T05:56:30.515Z,2.38
2022-11-25T05:59:21.749Z,2.34
2022-11-25T06:02:08.399Z,2.25
2022-11-25T06:04:36.722Z,2.32
2022-11-25T06:07:06.044Z,3.16
2022-11-25T06:09:36.144Z,2.97
2022-11-25T06:12:04.386Z,2.89
2022-11-25T06:14:35.917Z,2.52
2022-11-25T06:17:04.436Z,2.59
2022-11-25T06:19:40.738Z,2.96
2022-11-25T06:22:09.086Z,2.50
2022-11-25T06:24:38.889Z,2.50
2022-11-25T06:27:09.187Z,2.41
2022-11-25T06:29:38.371Z,2.41
2022-11-25T06:32:06.799Z,2.53
2022-11-25T06:34:42.903Z,2.31
2022-11-25T06:37:32.998Z,2.22
2022-11-25T06:40:02.963Z,2.27
2022-11-25T06:42:32.030Z,2.19
2022-11-25T06:45:00.458Z,2.17
2022-11-25T06:47:28.808Z,2.14
2022-11-25T06:49:57.189Z,2.12
2022-11-25T06:52:25.648Z,2.19
2022-11-25T06:54:54.021Z,2.65
2022-11-25T06:57:23.644Z,2.50
2022-11-25T06:59:54.131Z,2.65
2022-11-25T07:02:22.785Z,2.68
2022-11-25T07:04:51.088Z,2.50
2022-11-25T07:07:19.452Z,2.82
2022-11-25T07:09:48.452Z,2.63
2022-11-25T07:12:16.839Z,3.53
2022-11-25T07:14:46.577Z,2.86
2022-11-25T07:17:14.671Z,3.06
2022-11-25T07:19:42.796Z,3.19
2022-11-25T07:22:10.851Z,3.08
2022-11-25T07:24:39.032Z,3.26
2022-11-25T07:27:08.171Z,3.77
2022-11-25T07:29:57.860Z,3.06
2022-11-25T07:32:26.154Z,3.40
2022-11-25T07:34:54.166Z,3.12
2022-11-25T07:37:22.395Z,3.22
2022-11-25T07:39:50.734Z,4.21
2022-11-25T07:42:18.903Z,3.74
2022-11-25T07:44:47.043Z,3.78
2022-11-25T07:47:36.105Z,3.89
2022-11-25T07:50:04.176Z,4.03
2022-11-25T07:52:32.187Z,3.29
2022-11-25T07:55:00.217Z,2.93
2022-11-25T07:57:28.377Z,3.18
2022-11-25T07:59:56.402Z,3.27
2022-11-25T08:02:24.475Z,3.20
2022-11-25T08:04:53.942Z,3.35
2022-11-25T08:07:22.054Z,3.36
2022-11-25T08:09:51.396Z,3.50
2022-11-25T08:12:19.498Z,3.88
2022-11-25T08:14:47.609Z,4.13
2022-11-25T08:17:17.986Z,4.33
2022-11-25T08:19:46.269Z,4.67
2022-11-25T08:22:15.796Z,4.42
2022-11-25T08:24:46.164Z,4.65
2022-11-25T08:27:14.264Z,4.40
2022-11-25T08:29:42.365Z,4.68
2022-11-25T08:32:12.075Z,4.33
2022-11-25T08:34:40.336Z,5.50
2022-11-25T08:37:10.992Z,4.60
2022-11-25T08:39:56.236Z,4.37
2022-11-25T08:42:24.616Z,5.02
2022-11-25T08:44:53.764Z,5.35
2022-11-25T08:47:21.968Z,5.48
2022-11-25T08:49:52.937Z,5.89
2022-11-25T08:52:20.990Z,5.68
2022-11-25T08:54:50.513Z,5.19
2022-11-25T08:57:18.636Z,5.85
2022-11-25T08:59:46.761Z,5.27
2022-11-25T09:02:17.077Z,5.86
2022-11-25T09:04:45.244Z,6.70
2022-11-25T09:07:13.427Z,6.08
2022-11-25T09:09:41.594Z,6.00
2022-11-25T09:12:11.143Z,6.20
2022-11-25T09:14:40.413Z,5.34
2022-11-25T09:17:09.879Z,5.38
2022-11-25T09:19:38.458Z,5.30
2022-11-25T09:22:06.768Z,5.95
2022-11-25T09:24:35.403Z,5.85
2022-11-25T09:27:03.510Z,5.32
2022-11-25T09:29:33.191Z,5.77
2022-11-25T09:32:01.499Z,5.92
2022-11-25T09:34:29.799Z,5.97
2022-11-25T09:37:00.176Z,5.85
2022-11-25T09:39:29.813Z,6.05
2022-11-25T09:42:28.031Z,6.41
2022-11-25T09:45:21.723Z,6.13
2022-11-25T09:47:57.775Z,5.78
2022-11-25T09:50:31.843Z,6.02
2022-11-25T09:53:05.746Z,5.74
2022-11-25T09:55:36.204Z,5.51
2022-11-25T09:58:14.377Z,5.60
2022-11-25T10:00:45.742Z,5.44
2022-11-25T10:03:21.362Z,5.44
2022-11-25T10:05:53.978Z,5.59
2022-11-25T10:08:23.829Z,5.77
2022-11-25T10:10:57.750Z,5.80
2022-11-25T10:13:29.982Z,6.23
2022-11-25T10:16:02.821Z,6.96
2022-11-25T10:18:32.951Z,6.34
2022-11-25T10:21:01.238Z,6.62
2022-11-25T10:23:32.849Z,6.58
2022-11-25T10:26:02.896Z,7.21
2022-11-25T10:28:31.982Z,6.97
2022-11-25T10:31:04.543Z,6.72
2022-11-25T10:33:33.495Z,6.50
2022-11-25T10:36:06.992Z,7.21
2022-11-25T10:38:40.015Z,7.17
2022-11-25T10:41:08.722Z,7.34
2022-11-25T10:43:40.885Z,6.58
2022-11-25T10:46:15.817Z,6.56
2022-11-25T10:48:47.629Z,6.78
2022-11-25T10:51:22.389Z,7.04
2022-11-25T10:54:05.634Z,7.59
2022-11-25T10:56:43.016Z,7.65
2022-11-25T10:59:14.335Z,7.37
2022-11-25T11:01:43.921Z,7.13
2022-11-25T11:04:14.985Z,7.15
2022-11-25T11:06:44.111Z,7.19
2022-11-25T11:09:27.057Z,7.01
2022-11-25T11:11:55.102Z,6.61
2022-11-25T11:14:23.222Z,6.62
2022-11-25T11:16:55.076Z,6.54
2022-11-25T11:19:24.587Z,6.82
2022-11-25T11:21:52.697Z,7.10
2022-11-25T11:24:29.092Z,7.05
2022-11-25T11:27:05.230Z,6.90
2022-11-25T11:29:33.372Z,6.68
2022-11-25T11:32:03.879Z,7.17
2022-11-25T11:34:41.715Z,7.30
2022-11-25T11:37:18.024Z,7.30
2022-11-25T11:39:59.873Z,7.34
2022-11-25T11:42:33.774Z,7.89
2022-11-25T11:45:06.976Z,7.53
2022-11-25T11:47:41.910Z,7.55
2022-11-25T11:50:23.253Z,7.43
2022-11-25T11:52:56.129Z,7.51
2022-11-25T11:55:37.565Z,7.54
2022-11-25T11:58:10.595Z,7.34
2022-11-25T12:00:44.999Z,8.02
2022-11-25T12:03:17.893Z,7.88
2022-11-25T12:05:46.146Z,7.35
2022-11-25T12:08:15.697Z,7.70
2022-11-25T12:10:45.734Z,6.98
2022-11-25T12:13:18.391Z,7.18
2022-11-25T12:15:49.938Z,7.07
2022-11-25T12:18:24.360Z,6.98
2022-11-25T12:20:55.422Z,7.21
2022-11-25T12:23:27.890Z,6.92
2022-11-25T12:25:59.766Z,7.33
2022-11-25T12:28:31.437Z,7.25
2022-11-25T12:31:05.445Z,7.40
2022-11-25T12:33:42.574Z,7.69
2022-11-25T12:36:13.283Z,7.81
2022-11-25T12:38:44.278Z,7.74
2022-11-25T12:41:18.489Z,7.86
2022-11-25T12:43:49.936Z,8.16
2022-11-25T12:46:23.522Z,8.20
2022-11-25T12:48:54.349Z,7.95
2022-11-25T12:51:29.582Z,8.04
2022-11-25T12:54:04.771Z,7.99
2022-11-25T12:56:38.692Z,8.26
2022-11-25T12:59:18.572Z,7.93
2022-11-25T13:01:59.321Z,7.71
2022-11-25T13:04:47.187Z,7.75
2022-11-25T13:07:25.631Z,7.81
2022-11-25T13:10:07.261Z,7.97
2022-11-25T13:12:42.092Z,7.61
2022-11-25T13:15:27.458Z,8.65
2022-11-25T13:17:58.149Z,7.83
2022-11-25T13:20:40.251Z,7.91
2022-11-25T13:23:10.383Z,8.79
2022-11-25T13:25:39.611Z,8.83
2022-11-25T13:28:27.739Z,8.80
2022-11-25T13:30:56.049Z,8.62
2022-11-25T13:33:42.553Z,8.70
2022-11-25T13:36:18.215Z,8.72
2022-11-25T13:39:00.092Z,8.48
2022-11-25T13:41:38.318Z,8.54
2022-11-25T13:44:11.003Z,8.61
2022-11-25T13:46:41.078Z,8.32
2022-11-25T13:49:22.639Z,8.82
2022-11-25T13:51:56.326Z,8.58
2022-11-25T13:54:26.681Z,8.45
2022-11-25T13:57:15.656Z,8.72
2022-11-25T13:59:50.796Z,8.75
2022-11-25T14:02:42.024Z,8.56
2022-11-25T14:05:22.747Z,8.48
2022-11-25T14:07:57.774Z,8.40
2022-11-25T14:10:44.933Z,8.69
2022-11-25T14:13:29.132Z,8.69
2022-11-25T14:16:13.530Z,8.72
2022-11-25T14:21:51.507Z,8.80
2022-11-25T14:24:34.408Z,8.73
2022-11-25T14:27:05.222Z,8.69
2022-11-25T14:29:38.012Z,9.07
2022-11-25T14:32:09.666Z,8.82
2022-11-25T14:34:39.671Z,9.08
2022-11-25T14:37:11.235Z,9.46
2022-11-25T14:39:42.968Z,9.15
2022-11-25T14:42:16.713Z,9.11
2022-11-25T14:44:48.431Z,9.01
2022-11-25T14:47:16.781Z,9.01
2022-11-25T14:49:55.327Z,9.42
2022-11-25T14:52:35.786Z,9.42
2022-11-25T14:55:05.403Z,9.48
2022-11-25T14:57:36.388Z,9.25
2022-11-25T15:00:07.129Z,9.13
2022-11-25T15:02:37.347Z,9.12
2022-11-25T15:05:17.469Z,9.44
2022-11-25T15:07:54.304Z,9.34
2022-11-25T15:10:40.315Z,8.95
2022-11-25T15:13:13.821Z,9.10
2022-11-25T15:15:45.183Z,8.98
2022-11-25T15:18:18.247Z,8.87
2022-11-25T15:20:47.500Z,9.18
2022-11-25T15:23:18.023Z,8.90
2022-11-25T15:25:52.757Z,8.91
2022-11-25T15:28:22.268Z,8.76
2022-11-25T15:30:57.887Z,9.05
2022-11-25T15:33:26.864Z,8.73
2022-11-25T15:35:54.946Z,8.78
2022-11-25T15:38:36.232Z,9.07
2022-11-25T15:41:04.703Z,8.93
2022-11-25T15:43:35.537Z,8.67
2022-11-25T15:46:05.715Z,8.73
2022-11-25T15:48:36.170Z,8.54
2022-11-25T15:51:21.563Z,8.37
2022-11-25T15:53:53.346Z,8.56
2022-11-25T15:56:23.981Z,8.16
2022-11-25T15:58:57.381Z,8.15
2022-11-25T16:01:30.321Z,8.58
2022-11-25T16:04:10.546Z,8.45
2022-11-25T16:06:38.634Z,8.47
2022-11-25T16:09:20.527Z,8.67
2022-11-25T16:11:48.527Z,8.59
2022-11-25T16:14:26.454Z,9.02
2022-11-25T16:16:56.413Z,8.51
2022-11-25T16:19:27.622Z,8.40
2022-11-25T16:21:57.844Z,8.18
2022-11-25T16:24:40.699Z,8.19
2022-11-25T16:27:17.110Z,8.22
2022-11-25T16:29:54.342Z,8.17
2022-11-25T16:32:23.214Z,7.99
2022-11-25T16:34:51.369Z,7.97
2022-11-25T16:37:19.396Z,8.04
2022-11-25T16:39:47.476Z,7.89
2022-11-25T16:42:18.521Z,8.00
2022-11-25T16:44:48.016Z,7.48
2022-11-25T16:47:17.976Z,7.28
2022-11-25T16:49:46.506Z,7.23
2022-11-25T16:52:16.898Z,7.22
2022-11-25T16:54:44.986Z,7.27
2022-11-25T16:57:17.208Z,7.34
2022-11-25T16:59:46.377Z,7.41
2022-11-25T17:02:16.709Z,7.90
2022-11-25T17:04:46.384Z,7.03
2022-11-25T17:10:03.417Z,7.46
2022-11-25T17:12:33.023Z,7.62
2022-11-25T17:15:02.102Z,7.64
2022-11-25T17:17:30.428Z,7.97
2022-11-25T17:19:59.899Z,7.94
2022-11-25T17:22:32.190Z,7.94
2022-11-25T17:25:02.765Z,7.90
2022-11-25T17:27:32.984Z,7.97
2022-11-25T17:30:03.599Z,8.07
2022-11-25T17:32:34.443Z,8.21
2022-11-25T17:35:03.893Z,8.14
2022-11-25T17:37:32.983Z,7.97
2022-11-25T17:40:03.803Z,7.93
2022-11-25T17:42:32.900Z,8.10
2022-11-25T17:45:01.380Z,7.96
2022-11-25T17:47:29.456Z,7.98
2022-11-25T17:49:58.444Z,8.28
2022-11-25T17:52:27.845Z,8.07
2022-11-25T17:54:55.869Z,7.95
2022-11-25T17:57:29.123Z,7.98
2022-11-25T17:59:57.501Z,8.09
2022-11-25T18:02:25.723Z,8.50
2022-11-25T18:04:55.149Z,8.48
2022-11-25T18:07:23.434Z,8.20
2022-11-25T18:09:52.984Z,7.94
2022-11-25T18:12:26.275Z,7.68
2022-11-25T18:14:54.600Z,7.77
2022-11-25T18:17:22.684Z,7.54
2022-11-25T18:19:54.943Z,7.79
2022-11-25T18:22:24.696Z,7.38
2022-11-25T18:24:54.459Z,7.47
2022-11-25T18:27:23.948Z,7.23
2022-11-25T18:29:52.839Z,7.10
2022-11-25T18:32:22.680Z,7.26
2022-11-25T18:34:51.511Z,7.10
2022-11-25T18:37:19.577Z,7.16
2022-11-25T18:39:47.723Z,7.29
2022-11-25T18:42:23.539Z,7.45
2022-11-25T18:44:51.697Z,7.87
2022-11-25T18:47:19.773Z,7.75
2022-11-25T18:49:51.115Z,7.65
2022-11-25T18:52:23.779Z,7.56
2022-11-25T18:55:03.007Z,7.81
2022-11-25T18:57:36.219Z,7.67
2022-11-25T19:00:30.880Z,8.12
2022-11-25T19:02:57.191Z,8.19
2022-11-25T19:05:26.419Z,8.79
2022-11-25T19:07:55.967Z,8.62
2022-11-25T19:10:25.803Z,8.73
2022-11-25T19:12:58.842Z,8.65
2022-11-25T19:15:27.736Z,8.27
2022-11-25T19:17:59.712Z,8.27
2022-11-25T19:20:30.309Z,8.60
2022-11-25T19:23:01.185Z,8.38
2022-11-25T19:25:33.934Z,8.53
2022-11-25T19:28:03.480Z,8.47
2022-11-25T19:30:32.815Z,8.42
2022-11-25T19:33:04.111Z,8.63
2022-11-25T19:35:34.206Z,8.69
2022-11-25T19:38:04.656Z,8.71
2022-11-25T19:40:39.108Z,8.23
2022-11-25T19:43:11.224Z,8.45
2022-11-25T19:45:39.397Z,8.42
2022-11-25T19:48:17.820Z,8.26
2022-11-25T19:50:52.342Z,8.67
2022-11-25T19:53:22.850Z,8.69
2022-11-25T19:55:53.757Z,8.47
2022-11-25T19:58:24.241Z,8.06
2022-11-25T20:00:54.744Z,8.11
2022-11-25T20:03:27.825Z,8.53
2022-11-25T20:05:56.060Z,8.60
2022-11-25T20:08:25.956Z,8.44
2022-11-25T20:10:59.499Z,8.02
2022-11-25T20:13:29.258Z,7.82
2022-11-25T20:15:59.066Z,7.93
2022-11-25T20:18:27.794Z,8.46
2022-11-25T20:20:59.927Z,8.46
2022-11-25T20:23:32.068Z,7.88
2022-11-25T20:26:02.578Z,7.84
2022-11-25T20:28:32.585Z,8.05
2022-11-25T20:31:00.717Z,8.18
2022-11-25T20:33:28.985Z,8.20
2022-11-25T20:36:02.488Z,8.56
2022-11-25T20:38:34.036Z,8.18
2022-11-25T20:41:02.402Z,8.57
2022-11-25T20:43:36.958Z,8.17
2022-11-25T20:46:06.954Z,8.14
2022-11-25T20:48:38.010Z,9.03
2022-11-25T20:51:07.745Z,9.04
2022-11-25T20:53:36.234Z,8.83
2022-11-25T20:56:04.773Z,8.54
2022-11-25T20:58:38.425Z,8.57
2022-11-25T21:01:07.507Z,8.83
2022-11-25T21:03:36.070Z,9.08
2022-11-25T21:06:09.409Z,9.05
2022-11-25T21:08:47.280Z,9.10
2022-11-25T21:11:16.365Z,9.08
2022-11-25T21:13:46.089Z,9.27
2022-11-25T21:16:14.386Z,9.38
2022-11-25T21:18:43.200Z,9.71
2022-11-25T21:21:14.798Z,9.42
2022-11-25T21:23:43.803Z,8.47
2022-11-25T21:26:14.618Z,8.45
2022-11-25T21:28:43.916Z,8.85
2022-11-25T21:31:17.723Z,8.52
2022-11-25T21:33:46.699Z,8.92
2022-11-25T21:36:17.770Z,8.91
2022-11-25T21:38:49.339Z,8.69
2022-11-25T21:41:18.598Z,8.82
2022-11-25T21:43:49.568Z,8.77
2022-11-25T21:46:20.520Z,9.00
2022-11-25T21:48:52.396Z,8.74
2022-11-25T21:51:24.642Z,8.71
2022-11-25T21:53:53.076Z,8.54
2022-11-25T21:56:26.249Z,9.00
2022-11-25T21:58:54.624Z,8.56
2022-11-25T22:02:37.531Z,8.16
2022-11-25T22:05:14.381Z,8.11
2022-11-25T22:07:45.154Z,8.25
2022-11-25T22:10:13.892Z,8.32
2022-11-25T22:12:43.609Z,8.23
2022-11-25T22:15:16.862Z,8.43
2022-11-25T22:17:46.886Z,8.24
2022-11-25T22:20:21.407Z,8.39
2022-11-25T22:22:49.653Z,8.73
2022-11-25T22:25:17.764Z,8.77
2022-11-25T22:27:46.142Z,8.96
2022-11-25T22:30:16.682Z,8.71
2022-11-25T22:32:50.522Z,8.83
2022-11-25T22:35:20.123Z,8.77
2022-11-25T22:37:54.748Z,8.65
2022-11-25T22:40:24.323Z,8.67
2022-11-25T22:42:53.002Z,8.64
2022-11-25T22:45:25.013Z,8.69
2022-11-25T22:47:54.603Z,8.43
2022-11-25T22:50:23.713Z,8.80
2022-11-25T22:52:52.298Z,8.28
2022-11-25T22:55:21.848Z,7.98
2022-11-25T22:57:50.393Z,7.79
2022-11-25T23:00:19.634Z,7.89
2022-11-25T23:02:50.501Z,7.88
2022-11-25T23:05:30.722Z,7.75
2022-11-25T23:08:00.873Z,8.03
2022-11-25T23:10:30.083Z,7.61
2022-11-25T23:12:58.221Z,7.35
2022-11-25T23:15:26.713Z,7.37
2022-11-25T23:17:55.874Z,7.45
2022-11-25T23:20:27.115Z,7.10
2022-11-25T23:22:55.275Z,6.95
2022-11-25T23:25:23.970Z,6.88
2022-11-25T23:27:54.186Z,7.15
2022-11-25T23:30:23.290Z,7.20
2022-11-25T23:32:52.638Z,7.31
2022-11-25T23:35:22.226Z,7.07
2022-11-25T23:37:54.468Z,7.31
2022-11-25T23:40:23.359Z,7.54
2022-11-25T23:42:52.139Z,7.22
2022-11-25T23:45:22.180Z,7.01
2022-11-25T23:47:51.482Z,7.01
2022-11-25T23:50:25.740Z,7.06
2022-11-25T23:52:59.032Z,7.27
2022-11-25T23:55:28.425Z,7.22
2022-11-25T23:57:56.585Z,6.77
